createdAt,value
2018-05-17T00:02:24.698Z,33.40
2018-05-17T00:04:52.212Z,34.57
2018-05-17T00:07:19.754Z,33.50
2018-05-17T00:09:47.328Z,32.30
2018-05-17T00:12:14.830Z,34.40
2018-05-17T00:14:42.606Z,37.77
2018-05-17T00:17:10.098Z,35.00
2018-05-17T00:19:37.631Z,34.73
2018-05-17T00:22:05.961Z,37.13
2018-05-17T00:24:34.256Z,35.20
2018-05-17T00:27:01.764Z,32.53
2018-05-17T00:29:29.303Z,33.77
2018-05-17T00:31:56.798Z,35.73
2018-05-17T00:34:24.338Z,36.53
2018-05-17T00:36:51.844Z,34.97
2018-05-17T00:39:19.382Z,38.00
2018-05-17T00:41:47.659Z,34.13
2018-05-17T00:44:15.963Z,36.20
2018-05-17T00:46:43.465Z,38.17
2018-05-17T00:49:11.013Z,36.47
2018-05-17T00:51:38.520Z,36.97
2018-05-17T00:54:06.819Z,37.30
2018-05-17T00:56:34.388Z,39.33
2018-05-17T00:59:01.923Z,38.27
2018-05-17T01:01:30.193Z,37.53
2018-05-17T01:03:58.486Z,38.37
2018-05-17T01:06:25.985Z,38.67
2018-05-17T01:08:53.527Z,40.57
2018-05-17T01:11:21.164Z,40.87
2018-05-17T01:13:48.657Z,39.67
2018-05-17T01:16:16.297Z,41.20
2018-05-17T01:18:43.837Z,39.50
2018-05-17T01:21:12.151Z,41.77
2018-05-17T01:23:39.644Z,41.03
2018-05-17T01:26:07.180Z,43.50
2018-05-17T01:28:34.677Z,44.53
2018-05-17T01:31:03.000Z,42.30
2018-05-17T01:33:30.500Z,42.10
2018-05-17T01:35:58.038Z,43.90
2018-05-17T01:38:25.548Z,43.10
2018-05-17T01:40:53.089Z,43.87
2018-05-17T01:43:20.602Z,44.57
2018-05-17T01:45:48.141Z,45.20
2018-05-17T01:48:15.649Z,44.77
2018-05-17T01:50:43.190Z,46.87
2018-05-17T01:53:10.685Z,47.93
2018-05-17T01:55:38.960Z,49.57
2018-05-17T01:58:07.284Z,48.67
2018-05-17T02:00:34.783Z,48.77
2018-05-17T02:03:02.327Z,46.50
2018-05-17T02:05:29.831Z,44.80
2018-05-17T02:07:57.387Z,47.60
2018-05-17T02:10:26.234Z,46.43
2018-05-17T02:12:53.769Z,46.83
2018-05-17T02:15:21.310Z,46.63
2018-05-17T02:17:48.817Z,49.50
2018-05-17T02:20:18.580Z,50.63
2018-05-17T02:22:46.078Z,47.83
2018-05-17T02:25:13.577Z,44.70
2018-05-17T02:27:41.869Z,44.87
2018-05-17T02:30:09.386Z,46.80
2018-05-17T02:32:36.930Z,50.20
2018-05-17T02:35:04.450Z,51.20
2018-05-17T02:37:31.992Z,51.73
2018-05-17T02:39:59.535Z,49.57
2018-05-17T02:42:27.807Z,48.43
2018-05-17T02:44:56.119Z,50.10
2018-05-17T02:47:23.626Z,51.43
2018-05-17T02:49:51.155Z,51.27
2018-05-17T02:52:18.662Z,53.60
2018-05-17T02:54:46.987Z,52.20
2018-05-17T02:57:14.493Z,49.73
2018-05-17T02:59:42.038Z,51.37
2018-05-17T03:02:09.564Z,51.80
2018-05-17T03:04:37.107Z,50.90
2018-05-17T03:07:04.608Z,53.33
2018-05-17T03:09:32.166Z,52.77
2018-05-17T03:11:59.675Z,50.70
2018-05-17T03:14:27.177Z,56.10
2018-05-17T03:16:54.737Z,51.13
2018-05-17T03:19:22.305Z,56.00
2018-05-17T03:21:49.863Z,53.67
2018-05-17T03:24:17.362Z,55.67
2018-05-17T03:26:44.900Z,55.33
2018-05-17T03:29:13.182Z,57.47
2018-05-17T03:31:41.501Z,53.60
2018-05-17T03:34:09.031Z,57.50
2018-05-17T03:36:36.575Z,54.27
2018-05-17T03:39:04.840Z,52.63
2018-05-17T03:41:32.376Z,57.10
2018-05-17T03:43:59.886Z,55.57
2018-05-17T03:46:27.440Z,56.57
2018-05-17T03:48:55.700Z,57.43
2018-05-17T03:51:23.999Z,53.10
2018-05-17T03:53:51.494Z,56.83
2018-05-17T03:56:19.033Z,58.77
2018-05-17T03:58:46.536Z,56.77
2018-05-17T04:01:25.899Z,57.17
2018-05-17T04:04:05.053Z,59.97
2018-05-17T04:06:45.506Z,55.20
2018-05-17T04:09:13.021Z,55.80
2018-05-17T04:11:40.594Z,56.37
2018-05-17T04:14:09.610Z,61.47
2018-05-17T04:16:37.936Z,56.93
2018-05-17T04:19:05.464Z,59.40
2018-05-17T04:21:32.971Z,57.80
2018-05-17T04:24:00.507Z,60.87
2018-05-17T04:26:28.006Z,54.23
2018-05-17T04:28:55.539Z,58.00
2018-05-17T04:31:23.035Z,64.07
2018-05-17T04:33:51.442Z,58.13
2018-05-17T04:36:18.997Z,60.00
2018-05-17T04:38:46.508Z,59.90
2018-05-17T04:41:14.068Z,59.07
2018-05-17T04:43:41.568Z,56.77
2018-05-17T04:46:09.084Z,55.50
2018-05-17T04:48:36.637Z,59.70
2018-05-17T04:51:04.145Z,59.37
2018-05-17T04:53:31.674Z,56.90
2018-05-17T04:55:59.166Z,57.00
2018-05-17T04:58:26.725Z,35.63
2018-05-17T05:00:54.238Z,56.67
2018-05-17T05:03:22.557Z,54.20
2018-05-17T05:05:50.062Z,59.07
2018-05-17T05:08:17.606Z,57.77
2018-05-17T05:10:45.109Z,55.20
2018-05-17T05:13:12.663Z,39.87
2018-05-17T05:15:40.939Z,55.47
2018-05-17T05:18:09.247Z,55.40
2018-05-17T05:20:36.749Z,59.17
2018-05-17T05:23:04.298Z,55.23
2018-05-17T05:25:31.838Z,38.30
2018-05-17T05:27:59.367Z,54.00
2018-05-17T05:30:26.857Z,53.70
2018-05-17T05:32:54.399Z,52.83
2018-05-17T05:35:21.907Z,52.10
2018-05-17T05:37:49.448Z,29.83
2018-05-17T05:40:16.943Z,46.47
2018-05-17T05:42:45.275Z,46.07
2018-05-17T05:45:12.774Z,39.30
2018-05-17T05:47:40.294Z,46.00
2018-05-17T05:50:07.829Z,46.20
2018-05-17T05:52:35.332Z,43.90
2018-05-17T05:55:02.866Z,45.60
2018-05-17T05:57:31.173Z,27.57
2018-05-17T05:59:58.704Z,43.53
2018-05-17T06:02:26.450Z,35.80
2018-05-17T06:04:54.095Z,39.07
2018-05-17T06:07:22.025Z,40.23
2018-05-17T06:09:49.525Z,42.17
2018-05-17T06:12:17.162Z,35.67
2018-05-17T06:14:45.458Z,37.33
2018-05-17T06:17:12.971Z,32.23
2018-05-17T06:19:40.512Z,41.23
2018-05-17T06:22:08.015Z,35.03
2018-05-17T06:24:36.316Z,34.00
2018-05-17T06:27:03.816Z,37.63
2018-05-17T06:29:31.356Z,28.83
2018-05-17T06:31:58.850Z,37.60
2018-05-17T06:34:26.396Z,30.13
2018-05-17T06:36:53.894Z,31.20
2018-05-17T06:39:21.526Z,34.97
2018-05-17T06:41:49.032Z,34.23
2018-05-17T06:44:16.588Z,33.87
2018-05-17T06:46:44.094Z,32.53
2018-05-17T06:49:11.625Z,31.53
2018-05-17T06:51:39.143Z,31.13
2018-05-17T06:54:07.479Z,36.37
2018-05-17T06:56:34.979Z,31.17
2018-05-17T06:59:02.480Z,23.50
2018-05-17T07:01:30.015Z,31.40
2018-05-17T07:03:57.521Z,31.87
2018-05-17T07:06:25.058Z,23.33
2018-05-17T07:08:52.554Z,27.60
2018-05-17T07:11:20.099Z,29.17
2018-05-17T07:13:47.619Z,26.87
2018-05-17T07:16:15.182Z,30.47
2018-05-17T07:18:42.980Z,25.20
2018-05-17T07:21:10.234Z,27.00
2018-05-17T07:23:37.733Z,30.00
2018-05-17T07:26:06.175Z,26.80
2018-05-17T07:28:33.691Z,28.83
2018-05-17T07:31:01.240Z,24.90
2018-05-17T07:33:28.751Z,27.20
2018-05-17T07:35:56.282Z,27.43
2018-05-17T07:38:23.797Z,25.10
2018-05-17T07:40:51.354Z,21.70
2018-05-17T07:43:19.623Z,23.40
2018-05-17T07:45:47.910Z,25.13
2018-05-17T07:48:16.231Z,21.70
2018-05-17T07:50:43.735Z,25.03
2018-05-17T07:53:11.274Z,18.13
2018-05-17T07:55:38.865Z,22.90
2018-05-17T07:58:06.359Z,23.60
2018-05-17T08:00:34.050Z,19.40
2018-05-17T08:03:01.577Z,22.23
2018-05-17T08:05:29.081Z,21.90
2018-05-17T08:07:57.383Z,19.67
2018-05-17T08:10:24.891Z,19.40
2018-05-17T08:12:52.423Z,18.70
2018-05-17T08:15:19.923Z,16.60
2018-05-17T08:17:47.498Z,17.27
2018-05-17T08:20:14.995Z,16.67
2018-05-17T08:22:42.526Z,18.87
2018-05-17T08:25:10.174Z,15.50
2018-05-17T08:27:37.714Z,18.93
2018-05-17T08:30:05.225Z,14.97
2018-05-17T08:32:32.766Z,17.87
2018-05-17T08:35:00.276Z,15.70
2018-05-17T08:37:27.827Z,12.20
2018-05-17T08:39:55.323Z,16.53
2018-05-17T08:42:22.888Z,17.17
2018-05-17T08:44:50.385Z,13.30
2018-05-17T08:47:17.923Z,14.77
2018-05-17T08:49:45.422Z,14.73
2018-05-17T08:52:12.961Z,13.10
2018-05-17T08:54:40.474Z,13.13
2018-05-17T08:57:08.778Z,13.70
2018-05-17T08:59:36.334Z,13.60
2018-05-17T09:02:03.838Z,12.57
2018-05-17T09:04:31.358Z,12.90
2018-05-17T09:06:58.912Z,12.90
2018-05-17T09:09:27.188Z,10.77
2018-05-17T09:11:55.504Z,12.80
2018-05-17T09:14:23.017Z,12.93
2018-05-17T09:16:50.560Z,13.10
2018-05-17T09:19:18.071Z,13.03
2018-05-17T09:21:45.627Z,13.27
2018-05-17T09:24:13.138Z,12.87
2018-05-17T09:26:40.726Z,10.83
2018-05-17T09:29:08.269Z,11.53
2018-05-17T09:31:35.756Z,11.70
2018-05-17T09:34:03.307Z,13.13
2018-05-17T09:36:30.868Z,12.63
2018-05-17T09:38:58.421Z,12.30
2018-05-17T09:41:25.933Z,12.40
2018-05-17T09:43:53.500Z,13.43
2018-05-17T09:46:21.081Z,11.90
2018-05-17T09:48:49.394Z,10.33
2018-05-17T09:51:16.896Z,11.80
2018-05-17T09:53:44.467Z,10.77
2018-05-17T09:56:12.738Z,13.00
2018-05-17T09:58:40.294Z,13.70
2018-05-17T10:01:07.798Z,13.80
2018-05-17T10:03:35.350Z,13.90
2018-05-17T10:06:03.019Z,11.50
2018-05-17T10:08:30.565Z,12.30
2018-05-17T10:10:58.067Z,13.87
2018-05-17T10:13:25.603Z,12.63
2018-05-17T10:15:53.107Z,13.47
2018-05-17T10:18:20.663Z,13.70
2018-05-17T10:20:48.167Z,13.23
2018-05-17T10:23:15.673Z,10.53
2018-05-17T10:25:43.212Z,10.83
2018-05-17T10:28:10.719Z,13.33
2018-05-17T10:30:39.029Z,8.73
2018-05-17T10:33:06.545Z,13.40
2018-05-17T10:35:34.095Z,13.40
2018-05-17T10:38:01.610Z,13.27
2018-05-17T10:40:29.164Z,13.30
2018-05-17T10:42:56.669Z,10.77
2018-05-17T10:45:24.220Z,11.87
2018-05-17T10:47:51.729Z,13.90
2018-05-17T10:50:19.273Z,12.03
2018-05-17T10:52:47.592Z,13.47
2018-05-17T10:55:15.150Z,14.30
2018-05-17T10:57:42.662Z,12.83
2018-05-17T11:00:11.081Z,15.53
2018-05-17T11:02:38.659Z,13.90
2018-05-17T11:05:06.902Z,13.93
2018-05-17T11:07:34.469Z,13.43
2018-05-17T11:10:01.979Z,13.70
2018-05-17T11:12:29.536Z,16.07
2018-05-17T11:14:57.042Z,13.60
2018-05-17T11:17:24.586Z,11.60
2018-05-17T11:19:52.099Z,12.00
2018-05-17T11:22:19.643Z,15.00
2018-05-17T11:24:47.158Z,12.03
2018-05-17T11:27:14.926Z,14.07
2018-05-17T11:29:42.432Z,13.73
2018-05-17T11:32:09.965Z,14.90
2018-05-17T11:34:37.478Z,14.43
2018-05-17T11:37:05.034Z,9.90
2018-05-17T11:39:32.557Z,14.63
2018-05-17T11:42:00.115Z,14.47
2018-05-17T11:44:27.623Z,14.90
2018-05-17T11:46:55.895Z,13.77
2018-05-17T11:49:23.451Z,10.57
2018-05-17T11:51:50.941Z,15.40
2018-05-17T11:54:18.499Z,14.03
2018-05-17T11:56:48.219Z,15.27
2018-05-17T11:59:15.782Z,14.10
2018-05-17T12:01:43.298Z,13.00
2018-05-17T12:04:10.848Z,13.60
2018-05-17T12:06:38.566Z,13.80
2018-05-17T12:09:06.114Z,14.57
2018-05-17T12:11:33.611Z,14.80
2018-05-17T12:14:01.158Z,16.00
2018-05-17T12:16:29.255Z,14.13
2018-05-17T12:18:56.802Z,13.23
2018-05-17T12:21:24.296Z,11.30
2018-05-17T12:23:51.850Z,13.60
2018-05-17T12:26:20.119Z,13.73
2018-05-17T12:28:47.641Z,13.30
2018-05-17T12:31:15.199Z,12.77
2018-05-17T12:33:42.711Z,13.33
2018-05-17T12:36:11.041Z,12.97
2018-05-17T12:38:38.540Z,17.27
2018-05-17T12:41:06.088Z,15.07
2018-05-17T12:43:33.592Z,10.67
2018-05-17T12:46:01.132Z,13.53
2018-05-17T12:48:28.643Z,14.87
2018-05-17T12:50:56.263Z,12.50
2018-05-17T12:53:23.698Z,13.63
2018-05-17T12:55:51.235Z,12.23
2018-05-17T12:58:18.754Z,14.13
2018-05-17T13:00:46.378Z,10.57
2018-05-17T13:03:14.664Z,15.47
2018-05-17T13:05:42.794Z,14.33
2018-05-17T13:08:10.343Z,13.87
2018-05-17T13:10:37.845Z,14.17
2018-05-17T13:13:06.223Z,14.33
2018-05-17T13:15:33.671Z,13.87
2018-05-17T13:18:01.256Z,14.10
2018-05-17T13:20:28.762Z,14.57
2018-05-17T13:22:56.298Z,12.00
2018-05-17T13:25:23.836Z,13.87
2018-05-17T13:27:51.394Z,9.30
2018-05-17T13:30:18.933Z,14.67
2018-05-17T13:32:47.202Z,13.10
2018-05-17T13:35:14.746Z,13.30
2018-05-17T13:37:42.255Z,14.70
2018-05-17T13:40:09.796Z,14.53
2018-05-17T13:42:38.088Z,13.00
2018-05-17T13:45:05.648Z,15.50
2018-05-17T13:47:33.235Z,15.07
2018-05-17T13:50:01.493Z,14.97
2018-05-17T13:52:29.031Z,15.27
2018-05-17T13:54:56.623Z,14.30
2018-05-17T13:57:24.129Z,14.47
2018-05-17T13:59:51.673Z,13.70
2018-05-17T14:02:19.229Z,13.80
2018-05-17T14:04:46.748Z,13.40
2018-05-17T14:07:14.363Z,15.97
2018-05-17T14:09:42.308Z,13.73
2018-05-17T14:12:09.812Z,13.70
2018-05-17T14:14:38.127Z,14.70
2018-05-17T14:17:05.648Z,14.33
2018-05-17T14:19:34.151Z,11.57
2018-05-17T14:22:01.651Z,13.67
2018-05-17T14:24:29.203Z,13.40
2018-05-17T14:26:56.708Z,14.70
2018-05-17T14:29:24.296Z,14.40
2018-05-17T14:31:51.814Z,13.10
2018-05-17T14:34:19.340Z,14.67
2018-05-17T14:36:46.916Z,13.73
2018-05-17T14:39:14.429Z,12.43
2018-05-17T14:41:42.058Z,12.80
2018-05-17T14:44:09.659Z,12.80
2018-05-17T14:46:37.412Z,10.00
2018-05-17T14:49:04.977Z,13.57
2018-05-17T14:51:32.540Z,13.20
2018-05-17T14:54:00.286Z,11.80
2018-05-17T14:56:27.930Z,12.67
2018-05-17T14:58:56.236Z,10.70
2018-05-17T15:01:23.830Z,11.57
2018-05-17T15:03:51.371Z,11.87
2018-05-17T15:06:18.940Z,11.93
2018-05-17T15:08:46.658Z,12.00
2018-05-17T15:11:15.031Z,12.67
2018-05-17T15:13:42.502Z,14.60
2018-05-17T15:16:10.068Z,13.63
2018-05-17T15:18:37.634Z,11.77
2018-05-17T15:21:05.139Z,13.23
2018-05-17T15:23:32.772Z,12.40
2018-05-17T15:26:00.274Z,11.50
2018-05-17T15:28:28.606Z,12.00
2018-05-17T15:30:56.122Z,12.60
2018-05-17T15:33:23.683Z,12.10
2018-05-17T15:35:51.214Z,14.77
2018-05-17T15:38:18.881Z,13.60
2018-05-17T15:40:46.513Z,14.13
2018-05-17T15:43:15.803Z,13.87
2018-05-17T15:45:44.193Z,12.57
2018-05-17T15:48:15.848Z,13.97
2018-05-17T15:50:43.389Z,14.10
2018-05-17T15:53:11.137Z,14.37
2018-05-17T15:55:38.887Z,13.03
2018-05-17T15:58:07.257Z,12.10
2018-05-17T16:00:36.432Z,12.60
2018-05-17T16:03:04.088Z,14.60
2018-05-17T16:05:33.348Z,12.30
2018-05-17T16:08:06.348Z,14.73
2018-05-17T16:10:36.533Z,12.70
2018-05-17T16:13:05.073Z,13.00
2018-05-17T16:15:40.996Z,13.27
2018-05-17T16:18:09.530Z,13.70
2018-05-17T16:20:37.193Z,13.97
2018-05-17T16:23:04.749Z,14.67
2018-05-17T16:25:33.481Z,16.07
2018-05-17T16:28:01.115Z,16.30
2018-05-17T16:30:33.279Z,16.20
2018-05-17T16:33:02.345Z,14.37
2018-05-17T16:35:33.386Z,16.93
2018-05-17T16:38:01.705Z,16.70
2018-05-17T16:40:31.931Z,16.13
2018-05-17T16:43:00.326Z,17.83
2018-05-17T16:45:28.004Z,16.60
2018-05-17T16:47:56.451Z,17.60
2018-05-17T16:50:24.023Z,18.50
2018-05-17T16:52:51.813Z,18.27
2018-05-17T16:55:20.128Z,19.20
2018-05-17T16:57:52.543Z,18.00
2018-05-17T17:00:21.999Z,17.60
2018-05-17T17:02:53.386Z,17.50
2018-05-17T17:05:21.657Z,17.77
2018-05-17T17:07:56.101Z,16.17
2018-05-17T17:10:27.475Z,23.80
2018-05-17T17:12:55.722Z,19.30
2018-05-17T17:15:25.085Z,18.40
2018-05-17T17:17:53.693Z,17.73
2018-05-17T17:20:23.057Z,16.87
2018-05-17T17:22:51.611Z,16.17
2018-05-17T17:25:19.296Z,16.03
2018-05-17T17:27:47.074Z,14.63
2018-05-17T17:30:14.721Z,16.97
2018-05-17T17:32:42.256Z,15.10
2018-05-17T17:35:09.807Z,15.87
2018-05-17T17:37:37.375Z,16.93
2018-05-17T17:40:04.932Z,15.27
2018-05-17T17:42:32.464Z,14.47
2018-05-17T17:45:00.013Z,14.40
2018-05-17T17:47:27.537Z,14.03
2018-05-17T17:49:55.140Z,15.03
2018-05-17T17:52:23.399Z,15.23
2018-05-17T17:54:51.785Z,16.33
2018-05-17T17:57:19.350Z,14.50
2018-05-17T17:59:46.925Z,17.00
2018-05-17T18:02:14.436Z,17.23
2018-05-17T18:04:41.938Z,10.33
2018-05-17T18:07:09.488Z,17.00
2018-05-17T18:09:36.998Z,15.83
2018-05-17T18:12:04.535Z,15.67
2018-05-17T18:14:32.041Z,16.13
2018-05-17T18:16:59.596Z,15.30
2018-05-17T18:19:27.865Z,15.70
2018-05-17T18:21:55.415Z,15.63
2018-05-17T18:24:23.709Z,14.13
2018-05-17T18:26:51.254Z,14.90
2018-05-17T18:29:18.781Z,14.73
2018-05-17T18:31:47.545Z,13.50
2018-05-17T18:34:15.050Z,14.07
2018-05-17T18:36:42.615Z,15.60
2018-05-17T18:39:10.129Z,16.53
2018-05-17T18:41:37.700Z,14.30
2018-05-17T18:44:07.094Z,14.80
2018-05-17T18:46:34.630Z,15.03
2018-05-17T18:49:02.226Z,14.57
2018-05-17T18:51:31.211Z,15.23
2018-05-17T18:53:58.709Z,13.73
2018-05-17T18:56:28.468Z,13.60
2018-05-17T18:58:55.986Z,13.70
2018-05-17T19:01:23.526Z,14.83
2018-05-17T19:03:51.077Z,13.93
2018-05-17T19:06:18.621Z,13.87
2018-05-17T19:08:46.223Z,13.97
2018-05-17T19:11:14.251Z,12.97
2018-05-17T19:13:41.807Z,14.60
2018-05-17T19:16:09.311Z,14.27
2018-05-17T19:18:37.622Z,12.33
2018-05-17T19:21:05.142Z,14.77
2018-05-17T19:23:32.698Z,19.07
2018-05-17T19:26:00.205Z,14.00
2018-05-17T19:28:27.764Z,16.63
2018-05-17T19:30:55.283Z,13.70
2018-05-17T19:33:22.801Z,17.23
2018-05-17T19:35:50.358Z,16.17
2018-05-17T19:38:17.864Z,14.60
2018-05-17T19:40:45.426Z,18.30
2018-05-17T19:43:13.707Z,14.67
2018-05-17T19:45:42.029Z,15.10
2018-05-17T19:48:09.561Z,14.30
2018-05-17T19:50:37.105Z,14.70
2018-05-17T19:53:05.721Z,13.90
2018-05-17T19:55:33.492Z,14.77
2018-05-17T19:58:01.051Z,14.90
2018-05-17T20:00:28.559Z,13.07
2018-05-17T20:02:56.104Z,14.83
2018-05-17T20:05:24.179Z,13.27
2018-05-17T20:07:51.718Z,13.33
2018-05-17T20:10:19.219Z,14.10
2018-05-17T20:12:47.550Z,13.70
2018-05-17T20:15:15.059Z,13.20
2018-05-17T20:17:42.944Z,12.83
2018-05-17T20:20:10.457Z,13.97
2018-05-17T20:22:37.966Z,13.10
2018-05-17T20:25:05.507Z,12.20
2018-05-17T20:27:33.053Z,12.60
2018-05-17T20:30:01.330Z,13.40
2018-05-17T20:32:30.563Z,13.33
2018-05-17T20:34:58.070Z,13.90
2018-05-17T20:37:25.622Z,15.00
2018-05-17T20:39:53.151Z,12.83
2018-05-17T20:42:20.707Z,13.40
2018-05-17T20:44:48.471Z,14.80
2018-05-17T20:47:16.619Z,13.67
2018-05-17T20:49:44.136Z,12.50
2018-05-17T20:52:12.666Z,12.60
2018-05-17T20:54:40.175Z,13.60
2018-05-17T20:57:07.743Z,13.80
2018-05-17T20:59:35.269Z,12.13
2018-05-17T21:02:02.814Z,14.30
2018-05-17T21:04:30.449Z,14.60
2018-05-17T21:06:58.722Z,12.70
2018-05-17T21:09:27.020Z,13.53
2018-05-17T21:11:55.107Z,13.80
2018-05-17T21:14:22.672Z,14.60
2018-05-17T21:16:50.190Z,16.80
2018-05-17T21:19:18.492Z,14.50
2018-05-17T21:21:45.998Z,14.43
2018-05-17T21:24:15.046Z,13.10
2018-05-17T21:26:42.564Z,13.30
2018-05-17T21:29:10.129Z,14.53
2018-05-17T21:31:38.398Z,15.03
2018-05-17T21:34:06.717Z,13.33
2018-05-17T21:36:34.222Z,15.63
2018-05-17T21:39:01.771Z,14.00
2018-05-17T21:41:29.602Z,14.47
2018-05-17T21:43:57.147Z,13.80
2018-05-17T21:46:24.665Z,14.47
2018-05-17T21:48:52.381Z,14.30
2018-05-17T21:51:19.882Z,13.97
2018-05-17T21:53:47.384Z,14.27
2018-05-17T21:56:14.922Z,14.40
2018-05-17T21:58:42.426Z,16.43
2018-05-17T22:01:10.011Z,15.37
2018-05-17T22:03:37.624Z,14.23
2018-05-17T22:06:05.178Z,15.20
2018-05-17T22:08:32.696Z,13.60
2018-05-17T22:11:00.245Z,16.23
2018-05-17T22:13:27.784Z,13.70
2018-05-17T22:15:55.318Z,16.07
2018-05-17T22:18:22.824Z,17.40
2018-05-17T22:20:50.369Z,15.07
2018-05-17T22:23:18.012Z,16.03
2018-05-17T22:25:45.550Z,14.40
2018-05-17T22:28:13.901Z,17.00
2018-05-17T22:30:42.229Z,15.27
2018-05-17T22:33:09.753Z,16.67
2018-05-17T22:35:38.014Z,14.10
2018-05-17T22:38:05.568Z,15.00
2018-05-17T22:40:33.063Z,15.60
2018-05-17T22:43:00.617Z,13.30
2018-05-17T22:45:28.879Z,12.67
2018-05-17T22:47:57.186Z,12.00
2018-05-17T22:50:24.694Z,11.87
2018-05-17T22:52:52.232Z,11.83
2018-05-17T22:55:19.726Z,13.00
2018-05-17T22:57:59.778Z,11.53
2018-05-17T23:00:27.295Z,11.50
2018-05-17T23:02:54.826Z,10.53
2018-05-17T23:05:22.596Z,11.50
2018-05-17T23:07:50.127Z,12.67
2018-05-17T23:10:18.406Z,10.43
2018-05-17T23:12:46.710Z,11.07
2018-05-17T23:15:14.207Z,9.70
2018-05-17T23:17:41.761Z,11.30
2018-05-17T23:20:09.258Z,11.77
2018-05-17T23:22:37.561Z,9.80
2018-05-17T23:25:05.067Z,11.37
2018-05-17T23:27:32.624Z,11.27
2018-05-17T23:30:00.142Z,10.80
2018-05-17T23:32:27.909Z,11.23
2018-05-17T23:34:55.449Z,12.10
2018-05-17T23:37:22.944Z,12.30
2018-05-17T23:39:50.494Z,11.97
2018-05-17T23:42:18.011Z,12.30
2018-05-17T23:44:46.407Z,10.53
2018-05-17T23:47:13.910Z,12.37
2018-05-17T23:49:41.451Z,12.37
2018-05-17T23:52:08.955Z,11.77
2018-05-17T23:54:36.677Z,10.70
2018-05-17T23:57:04.182Z,12.03
2018-05-17T23:59:32.490Z,12.47
